Time;durP1;ratioP1;P1;durP2;ratioP2;P2;SDS_P1;SDS_P2;PMS_P1;PMS_P2;Temp;Humidity;BMP_temperature;BMP_pressure;BME280_temperature;BME280_humidity;BME280_pressure;Samples;Min_cycle;Max_cycle;Signal;HPM_P1;HPM_P2
2022/03/22 00:01:28;;;;;;;21.42;11.15;;;3.40;37.40;;;;;;6188981;23;19996;-80
2022/03/22 00:03:54;;;;;;;28.13;11.50;;;3.60;36.80;;;;;;6188631;23;19993;-77
2022/03/22 00:06:20;;;;;;;27.27;10.55;;;3.70;36.40;;;;;;6213859;23;19990;-79
2022/03/22 00:08:47;;;;;;;18.85;10.10;;;3.80;36.50;;;;;;6189157;23;19997;-78
2022/03/22 00:11:13;;;;;;;20.40;9.43;;;3.70;35.90;;;;;;6189029;23;20048;-78
2022/03/22 00:13:42;;;;;;;20.27;9.50;;;3.80;35.80;;;;;;6213274;23;20020;-81
2022/03/22 00:16:08;;;;;;;21.27;10.20;;;4.00;35.80;;;;;;6189205;23;19993;-76
2022/03/22 00:18:35;;;;;;;24.35;10.65;;;4.00;35.90;;;;;;6214740;23;20009;-76
2022/03/22 00:21:01;;;;;;;20.88;10.98;;;4.00;35.40;;;;;;6214725;23;19991;-80
2022/03/22 00:23:28;;;;;;;;;;;4.00;35.30;;;;;;6215127;23;19993;-79
2022/03/22 00:25:57;;;;;;;18.85;9.70;;;4.00;35.00;;;;;;6188780;23;19888;-77
2022/03/22 00:28:23;;;;;;;16.75;8.70;;;4.10;34.90;;;;;;6189241;23;20000;-77
2022/03/22 00:30:50;;;;;;;18.50;9.48;;;4.20;34.90;;;;;;6188984;23;19989;-79
2022/03/22 00:33:16;;;;;;;20.77;10.35;;;4.20;34.70;;;;;;6188505;23;20151;-82
2022/03/22 03:20:09;;;;;;;20.85;10.88;;;2.60;40.90;;;;;;6171399;23;20120;-80
2022/03/22 03:22:35;;;;;;;19.92;10.40;;;2.60;41.00;;;;;;6183384;23;20023;-82
2022/03/22 03:25:02;;;;;;;38.22;11.43;;;2.50;40.90;;;;;;6158353;23;20041;-81
2022/03/22 03:27:28;;;;;;;22.85;10.63;;;2.60;41.20;;;;;;6183028;23;19990;-82
2022/03/22 03:29:54;;;;;;;31.13;11.57;;;2.60;40.90;;;;;;6182872;23;19985;-81
2022/03/22 03:32:20;;;;;;;21.83;11.02;;;2.70;41.30;;;;;;6183341;23;20032;-84
2022/03/22 03:42:32;;;;;;;25.55;11.35;;;2.80;40.50;;;;;;6141640;22;21052;-81
2022/03/22 03:47:42;;;;;;;28.00;14.02;;;3.00;40.70;;;;;;6242226;23;20032;-79
2022/03/22 03:50:09;;;;;;;31.73;15.75;;;2.80;40.50;;;;;;6203722;23;20000;-79
2022/03/22 03:52:36;;;;;;;42.88;19.45;;;2.80;40.80;;;;;;6242350;23;20000;-80
2022/03/22 03:55:05;;;;;;;54.03;22.70;;;2.70;40.80;;;;;;6240485;23;20032;-81
2022/03/22 03:57:32;;;;;;;50.13;23.10;;;2.60;41.00;;;;;;6240509;23;19997;-81
2022/03/22 03:59:59;;;;;;;53.97;25.38;;;2.60;41.50;;;;;;6215776;23;20009;-80
2022/03/22 04:02:25;;;;;;;51.47;23.23;;;2.50;41.70;;;;;;6242739;23;20009;-81
2022/03/22 04:04:52;;;;;;;53.65;24.90;;;2.50;41.70;;;;;;6216064;23;20019;-79
2022/03/22 04:07:22;;;;;;;46.95;21.80;;;2.50;41.70;;;;;;6216163;23;20029;-81
2022/03/22 04:09:49;;;;;;;39.92;19.92;;;2.50;41.60;;;;;;6217188;22;20023;-81
2022/03/22 04:12:15;;;;;;;36.63;18.80;;;2.70;41.20;;;;;;6243345;23;20013;-82
2022/03/22 04:14:41;;;;;;;29.13;13.18;;;2.80;41.50;;;;;;6242571;23;20008;-81
2022/03/22 04:17:10;;;;;;;;;;;2.90;40.80;;;;;;6214269;23;19993;-82
2022/03/22 04:19:36;;;;;;;29.00;14.57;;;3.00;40.40;;;;;;6218068;23;19888;-77
2022/03/22 04:22:04;;;;;;;28.15;14.35;;;3.00;40.60;;;;;;6244510;23;20069;-79
2022/03/22 04:24:30;;;;;;;32.35;15.15;;;3.20;40.40;;;;;;6218554;23;20015;-79
2022/03/22 04:32:41;;;;;;;;;;;3.20;40.90;;;;;;6219602;23;20064;-77
2022/03/22 04:32:43;;;;;;;30.48;15.85;;;3.30;40.00;;;;;;6241496;23;20000;-80
2022/03/22 04:35:17;;;;;;;30.20;15.25;;;3.30;40.50;;;;;;6214240;23;20000;-76
2022/03/22 04:37:43;;;;;;;29.35;14.73;;;3.10;40.90;;;;;;6214133;23;19990;-78
2022/03/22 04:40:11;;;;;;;33.33;14.77;;;3.10;40.40;;;;;;6213332;23;20004;-80
2022/03/22 04:42:37;;;;;;;33.63;15.52;;;3.20;40.60;;;;;;6188066;23;20052;-80
2022/03/22 04:45:04;;;;;;;34.72;15.80;;;3.20;40.90;;;;;;6215833;23;20024;-79
2022/03/22 04:47:30;;;;;;;34.33;15.85;;;3.20;41.30;;;;;;6215448;23;19997;-80
2022/03/22 04:49:56;;;;;;;34.28;14.88;;;3.10;41.30;;;;;;6216083;23;19990;-79
2022/03/22 04:57:52;;;;;;;29.55;14.23;;;3.10;41.40;;;;;;6216241;23;19996;-79
2022/03/22 05:00:19;;;;;;;31.92;15.38;;;3.10;41.60;;;;;;6190224;23;19993;-79
2022/03/22 05:02:44;;;;;;;29.20;14.30;;;3.20;41.70;;;;;;6190477;23;19990;-80
2022/03/22 05:05:10;;;;;;;30.20;13.55;;;3.10;42.40;;;;;;6215563;23;19992;-78
2022/03/22 05:07:36;;;;;;;32.28;14.55;;;3.10;41.70;;;;;;6216045;23;19997;-80
2022/03/22 05:10:03;;;;;;;28.58;13.73;;;3.20;41.70;;;;;;6216184;23;20045;-79
2022/03/22 05:12:28;;;;;;;27.90;12.82;;;3.30;41.50;;;;;;6215773;23;20021;-77
2022/03/22 05:14:54;;;;;;;30.52;14.95;;;3.40;41.10;;;;;;6216123;23;20005;-79
2022/03/22 05:17:21;;;;;;;;;;;3.40;41.10;;;;;;6190777;23;19989;-80
2022/03/22 05:19:51;;;;;;;28.80;13.18;;;3.70;41.10;;;;;;6190434;23;19924;-77
2022/03/22 05:22:18;;;;;;;34.45;13.88;;;3.70;41.10;;;;;;6216036;23;20009;-79
2022/03/22 05:24:46;;;;;;;37.00;16.08;;;3.70;40.80;;;;;;6216124;23;19996;-79
2022/03/22 05:27:15;;;;;;;39.47;16.25;;;3.90;40.70;;;;;;6216016;23;20017;-81
2022/03/22 05:29:41;;;;;;;40.03;15.68;;;4.00;40.50;;;;;;6215678;23;19996;-77
2022/03/22 05:32:08;;;;;;;37.88;17.40;;;4.10;40.20;;;;;;6215887;23;20005;-76
2022/03/22 06:28:54;;;;;;;35.22;15.20;;;12.20;27.50;;;;;;6175806;23;20028;-84
2022/03/22 06:31:20;;;;;;;;;;;12.60;26.60;;;;;;6186039;23;20601;-87
2022/03/22 06:33:45;;;;;;;41.08;18.98;;;13.30;25.90;;;;;;6152545;23;19912;-89
2022/03/22 06:36:11;;;;;;;;;;;13.80;25.10;;;;;;6177914;23;20160;-88
2022/03/22 06:38:36;;;;;;;35.25;17.08;;;14.30;24.50;;;;;;6151400;23;19908;-89
2022/03/22 06:41:02;;;;;;;;;;;15.00;23.90;;;;;;6151402;23;20009;-91
2022/03/22 06:43:29;;;;;;;30.73;14.88;;;15.50;22.50;;;;;;6152652;23;19908;-88
2022/03/22 06:45:54;;;;;;;35.60;18.95;;;16.10;22.50;;;;;;6153040;23;20043;-89
2022/03/22 06:48:22;;;;;;;30.77;16.35;;;16.80;21.80;;;;;;6178501;23;20001;-90
2022/03/22 06:50:49;;;;;;;28.17;14.50;;;17.60;21.30;;;;;;6179108;23;20009;-89
2022/03/22 06:53:15;;;;;;;36.47;14.05;;;18.20;20.30;;;;;;6179284;23;20013;-87
2022/03/22 06:55:41;;;;;;;25.08;14.57;;;18.90;20.00;;;;;;6178901;23;20016;-87
2022/03/22 06:58:07;;;;;;;28.95;14.48;;;19.30;19.20;;;;;;6178584;23;20029;-85
2022/03/22 07:00:34;;;;;;;27.40;13.55;;;19.80;18.70;;;;;;6178234;23;19997;-86
2022/03/22 07:03:02;;;;;;;25.23;13.70;;;20.40;18.30;;;;;;6152865;23;20042;-86
2022/03/22 07:05:29;;;;;;;23.92;12.38;;;20.50;17.70;;;;;;6151076;23;20016;-85
2022/03/22 07:07:56;;;;;;;18.55;11.85;;;20.80;17.70;;;;;;6150749;23;20020;-84
2022/03/22 07:10:22;;;;;;;19.60;12.73;;;21.00;17.90;;;;;;6151485;23;20035;-86
2022/03/22 07:12:51;;;;;;;20.40;13.90;;;21.40;17.10;;;;;;6177519;23;20019;-85
2022/03/22 07:15:19;;;;;;;26.73;13.70;;;21.60;16.50;;;;;;6178413;23;20055;-85
2022/03/22 07:17:45;;;;;;;21.83;12.65;;;21.40;16.20;;;;;;6179882;23;20462;-84
2022/03/22 07:20:11;;;;;;;19.10;12.60;;;21.70;16.40;;;;;;6151270;23;20009;-86
2022/03/22 07:22:37;;;;;;;24.27;14.00;;;22.50;15.10;;;;;;6152319;23;20009;-86
2022/03/22 07:25:03;;;;;;;24.05;13.45;;;22.30;15.10;;;;;;6178332;23;20005;-86
2022/03/22 07:27:30;;;;;;;19.10;13.23;;;22.00;15.50;;;;;;6178913;23;20009;-86
2022/03/22 07:29:56;;;;;;;20.67;13.18;;;21.70;15.20;;;;;;6178828;23;20020;-87
2022/03/22 07:32:22;;;;;;;21.80;13.70;;;21.70;15.30;;;;;;6177398;23;20020;-86
2022/03/22 07:34:48;;;;;;;21.23;12.20;;;22.10;14.90;;;;;;6179131;23;20016;-86
2022/03/22 07:37:14;;;;;;;19.17;13.77;;;21.60;14.90;;;;;;6178322;23;20005;-87
2022/03/22 07:39:40;;;;;;;20.55;12.57;;;21.20;15.20;;;;;;6152275;23;20009;-88
2022/03/22 07:42:06;;;;;;;20.70;13.18;;;21.40;15.30;;;;;;6152981;23;20001;-90
2022/03/22 07:44:32;;;;;;;17.98;12.52;;;21.50;15.70;;;;;;6153043;23;20536;-88
2022/03/22 07:46:59;;;;;;;17.15;12.15;;;21.90;14.90;;;;;;6151383;23;20404;-88
2022/03/22 07:54:53;;;;;;;20.23;12.30;;;22.10;14.50;;;;;;6177796;23;20096;-86
2022/03/22 07:57:19;;;;;;;20.23;11.50;;;22.60;14.60;;;;;;6177045;23;20547;-85
2022/03/22 07:59:45;;;;;;;17.10;10.70;;;23.00;14.30;;;;;;6176050;23;20021;-87
2022/03/22 08:02:11;;;;;;;18.35;11.48;;;23.20;13.40;;;;;;6152190;23;20097;-87
2022/03/22 08:04:37;;;;;;;19.13;11.27;;;23.20;13.40;;;;;;6152248;23;20442;-86
2022/03/22 08:07:02;;;;;;;22.02;11.77;;;23.30;13.90;;;;;;6177633;23;20439;-86
2022/03/22 08:09:28;;;;;;;25.17;11.15;;;23.40;13.20;;;;;;6152700;23;20362;-86
2022/03/22 08:11:54;;;;;;;16.77;10.43;;;23.60;14.00;;;;;;6177090;23;20485;-85
2022/03/22 08:14:20;;;;;;;21.52;12.18;;;24.20;13.10;;;;;;6150626;23;20072;-86
2022/03/22 08:16:46;;;;;;;17.20;11.30;;;24.30;13.00;;;;;;6176745;23;20008;-86
2022/03/22 08:19:18;;;;;;;20.17;13.15;;;23.80;13.50;;;;;;6179395;23;20045;-83
2022/03/22 08:21:48;;;;;;;21.08;12.00;;;23.80;13.40;;;;;;6178989;23;20001;-85
2022/03/22 08:24:14;;;;;;;18.25;12.07;;;24.20;13.30;;;;;;6177552;23;20016;-86
2022/03/22 08:26:40;;;;;;;16.20;10.57;;;24.30;13.20;;;;;;6153350;23;20013;-86
2022/03/22 08:29:06;;;;;;;18.05;11.20;;;24.40;12.80;;;;;;6179073;23;20344;-86
2022/03/22 08:31:32;;;;;;;19.23;10.73;;;24.00;13.20;;;;;;6152854;23;20481;-88
2022/03/22 08:33:58;;;;;;;26.50;10.82;;;23.70;13.80;;;;;;6153334;23;20021;-87
2022/03/22 08:36:24;;;;;;;17.45;10.80;;;23.60;13.30;;;;;;6178989;23;20012;-86
2022/03/22 08:38:49;;;;;;;15.13;11.07;;;23.10;13.70;;;;;;6179633;23;20611;-87
2022/03/22 08:41:16;;;;;;;22.15;10.05;;;22.60;13.90;;;;;;6180061;23;20017;-86
2022/03/22 08:43:42;;;;;;;15.38;9.43;;;22.60;14.00;;;;;;6179368;23;20449;-86
2022/03/22 08:46:08;;;;;;;15.52;10.68;;;22.60;14.00;;;;;;6178506;23;20490;-86
2022/03/22 08:48:34;;;;;;;18.98;9.65;;;22.70;14.40;;;;;;6153599;23;20088;-86
2022/03/22 08:51:00;;;;;;;19.92;10.82;;;23.20;13.80;;;;;;6180023;23;20040;-87
2022/03/22 08:53:26;;;;;;;22.15;9.57;;;23.10;13.80;;;;;;6180989;23;20013;-89
2022/03/22 08:55:52;;;;;;;19.80;11.15;;;22.90;14.10;;;;;;6181594;23;20713;-88
2022/03/22 08:58:19;;;;;;;12.30;8.63;;;23.10;13.80;;;;;;6180009;23;20019;-86
2022/03/22 09:00:48;;;;;;;15.45;10.10;;;23.10;14.00;;;;;;6153246;23;20012;-85
2022/03/22 09:03:14;;;;;;;17.10;9.15;;;23.10;14.10;;;;;;6180752;23;20462;-86
2022/03/22 09:08:25;;;;;;;18.52;8.60;;;22.70;14.30;;;;;;6180470;23;20044;-86
2022/03/22 09:10:51;;;;;;;17.80;8.18;;;23.10;14.50;;;;;;6179839;23;20376;-87
2022/03/22 09:13:18;;;;;;;14.80;8.55;;;23.50;13.70;;;;;;6153974;23;20017;-87
2022/03/22 09:15:44;;;;;;;16.10;9.88;;;23.70;13.50;;;;;;6180072;23;20020;-86
2022/03/22 09:18:16;;;;;;;11.98;8.35;;;23.10;13.70;;;;;;6179506;23;20024;-84
2022/03/22 09:20:43;;;;;;;16.55;7.32;;;22.90;14.30;;;;;;6152613;23;20087;-85
2022/03/22 09:23:09;;;;;;;12.07;6.88;;;23.20;14.00;;;;;;6152070;23;20211;-84
2022/03/22 09:25:36;;;;;;;13.35;7.78;;;23.40;13.70;;;;;;6178758;23;20009;-83
2022/03/22 09:28:04;;;;;;;12.00;8.27;;;23.30;13.80;;;;;;6178125;23;20001;-86
2022/03/22 09:30:31;;;;;;;16.15;7.47;;;23.00;13.90;;;;;;6178299;23;20516;-85
2022/03/22 09:32:57;;;;;;;12.30;6.70;;;23.40;14.60;;;;;;6152661;23;20362;-82
2022/03/22 09:35:23;;;;;;;10.85;7.15;;;23.90;14.80;;;;;;6151779;23;20005;-82
2022/03/22 09:37:50;;;;;;;10.40;7.30;;;24.70;14.10;;;;;;6152003;23;20442;-82
2022/03/22 09:40:18;;;;;;;13.70;7.32;;;25.50;14.00;;;;;;6177333;23;20417;-82
2022/03/22 09:42:45;;;;;;;12.25;7.15;;;25.90;13.30;;;;;;6179190;23;20068;-81
2022/03/22 09:45:14;;;;;;;14.57;7.18;;;26.00;12.90;;;;;;6152598;23;20358;-84
2022/03/22 09:47:42;;;;;;;12.27;7.05;;;26.00;12.60;;;;;;6152407;23;20029;-85
2022/03/22 09:50:09;;;;;;;13.68;7.38;;;26.00;12.20;;;;;;6152690;23;20375;-84
2022/03/22 09:52:36;;;;;;;14.13;7.70;;;25.60;12.90;;;;;;6152526;23;20354;-85
2022/03/22 09:55:03;;;;;;;14.25;6.45;;;25.50;12.70;;;;;;6153340;23;20020;-85
2022/03/22 09:57:28;;;;;;;14.75;7.03;;;25.20;12.70;;;;;;6152668;23;20012;-84
2022/03/22 09:59:54;;;;;;;13.23;9.15;;;25.00;14.10;;;;;;6152028;23;20040;-85
2022/03/22 10:02:30;;;;;;;15.70;9.90;;;25.10;13.70;;;;;;6177041;23;20032;-84
2022/03/22 10:04:56;;;;;;;14.57;9.18;;;26.00;13.80;;;;;;6178423;23;20032;-84
2022/03/22 10:07:23;;;;;;;14.07;8.60;;;26.40;13.40;;;;;;6178298;23;20005;-84
2022/03/22 10:10:01;;;;;;;13.23;8.25;;;26.60;13.30;;;;;;6178504;23;20040;-82
2022/03/22 10:12:32;;;;;;;10.65;6.85;;;26.50;12.90;;;;;;6177322;23;20024;-82
2022/03/22 10:15:17;;;;;;;9.93;7.75;;;27.10;13.20;;;;;;6150011;23;20013;-84
2022/03/22 10:17:44;;;;;;;11.48;7.72;;;27.20;13.20;;;;;;6177077;23;20040;-83
2022/03/22 10:20:21;;;;;;;13.63;7.13;;;27.20;13.20;;;;;;6151028;23;20044;-83
2022/03/22 10:23:01;;;;;;;14.82;7.28;;;27.20;13.00;;;;;;6177937;23;20152;-85
2022/03/22 10:25:30;;;;;;;17.80;7.72;;;27.10;13.00;;;;;;6177834;23;20043;-85
2022/03/22 10:27:57;;;;;;;11.60;7.30;;;26.70;12.90;;;;;;6177828;23;20001;-85
2022/03/22 10:30:23;;;;;;;13.18;7.88;;;26.50;12.90;;;;;;6150636;23;20311;-85
2022/03/22 10:32:51;;;;;;;13.05;8.23;;;26.50;13.10;;;;;;6178625;23;20462;-85
2022/03/22 10:35:19;;;;;;;14.82;7.65;;;26.40;13.30;;;;;;6151858;23;20005;-88
2022/03/22 10:37:46;;;;;;;15.27;8.90;;;26.20;13.00;;;;;;6177732;23;20028;-91
2022/03/22 10:40:50;;;;;;;24.60;9.48;;;25.20;13.00;;;;;;6178220;23;20005;-92
2022/03/22 10:43:18;;;;;;;16.70;9.05;;;24.10;14.00;;;;;;6172647;23;20086;-90
2022/03/22 10:45:52;;;;;;;11.68;7.60;;;23.50;14.70;;;;;;6152948;23;20005;-89
2022/03/22 10:48:22;;;;;;;14.95;9.30;;;23.00;15.30;;;;;;6179657;23;20472;-88
2022/03/22 10:50:49;;;;;;;16.45;8.60;;;22.60;15.30;;;;;;6155749;23;20044;-87
2022/03/22 10:53:17;;;;;;;17.13;8.63;;;22.10;15.60;;;;;;6168843;23;20052;-85
2022/03/22 10:55:44;;;;;;;15.65;9.52;;;21.90;16.00;;;;;;6208401;23;20016;-83
2022/03/22 10:58:18;;;;;;;11.70;8.05;;;21.50;16.00;;;;;;6212708;23;20013;-85
2022/03/22 11:00:45;;;;;;;20.13;8.50;;;21.20;16.20;;;;;;6188391;23;19997;-80
2022/03/22 11:03:13;;;;;;;16.80;7.70;;;21.00;16.90;;;;;;6214920;23;20001;-76
2022/03/22 11:05:41;;;;;;;14.65;8.13;;;20.80;16.90;;;;;;6215324;23;20004;-79
2022/03/22 11:08:07;;;;;;;15.45;8.13;;;20.70;16.80;;;;;;6215231;23;20032;-75
2022/03/22 11:10:33;;;;;;;18.25;7.78;;;20.50;17.10;;;;;;6215251;23;20008;-74
2022/03/22 11:13:00;;;;;;;14.27;8.13;;;20.30;17.20;;;;;;6189798;23;20001;-74
2022/03/22 11:15:42;;;;;;;15.02;8.10;;;20.10;17.40;;;;;;6189705;23;20048;-74
2022/03/22 11:18:09;;;;;;;12.75;7.50;;;20.00;17.50;;;;;;6189767;23;20056;-77
2022/03/22 11:20:34;;;;;;;15.15;8.20;;;20.00;17.40;;;;;;6189736;23;19985;-75
2022/03/22 11:23:00;;;;;;;16.02;7.90;;;19.90;17.20;;;;;;6215143;23;20004;-74
2022/03/22 11:25:31;;;;;;;18.88;8.25;;;19.90;17.60;;;;;;6189814;23;20008;-74
2022/03/22 11:28:11;;;;;;;15.02;7.55;;;19.80;17.30;;;;;;6214995;23;19993;-79
2022/03/22 11:30:42;;;;;;;13.75;7.70;;;19.70;17.90;;;;;;6214621;23;20025;-74
2022/03/22 17:34:47;;;;;;;39.30;22.08;;;14.90;20.80;;;;;;6183866;23;20008;-78
2022/03/22 17:37:13;;;;;;;;;;;14.60;21.10;;;;;;6216144;23;20028;-80
2022/03/22 17:39:40;;;;;;;36.92;21.05;;;14.40;21.20;;;;;;6215006;23;19889;-80
2022/03/22 17:42:06;;;;;;;56.10;27.00;;;14.30;21.40;;;;;;6215701;23;19989;-76
2022/03/22 17:44:32;;;;;;;;;;;14.10;21.40;;;;;;6216127;23;19997;-75
2022/03/22 17:46:58;;;;;;;186.77;84.30;;;14.10;21.60;;;;;;6190462;23;19895;-77
2022/03/22 17:49:27;;;;;;;166.68;79.70;;;13.90;21.60;;;;;;6215075;23;20143;-80
2022/03/22 17:51:53;;;;;;;115.18;55.60;;;13.80;21.60;;;;;;6215972;23;20045;-75
2022/03/22 17:54:18;;;;;;;;;;;13.60;21.70;;;;;;6216396;23;20020;-79
2022/03/22 17:56:44;;;;;;;65.47;35.33;;;13.50;21.90;;;;;;6189749;23;19900;-75
2022/03/22 17:59:10;;;;;;;;;;;13.20;22.50;;;;;;6216197;23;20012;-77
2022/03/22 18:01:36;;;;;;;62.10;38.22;;;12.90;23.30;;;;;;6215891;23;19905;-75
2022/03/22 18:04:02;;;;;;;;;;;12.70;23.60;;;;;;6216071;23;20004;-78
2022/03/22 18:06:27;;;;;;;68.00;40.58;;;12.50;23.40;;;;;;6215994;23;19911;-74
2022/03/22 18:08:57;;;;;;;;;;;12.40;23.50;;;;;;6216305;23;20001;-77
2022/03/22 18:11:42;;;;;;;30.17;19.20;;;12.20;23.50;;;;;;6215876;23;19915;-76
2022/03/22 18:14:09;;;;;;;34.40;21.08;;;12.10;23.20;;;;;;6215546;23;19997;-75
2022/03/22 18:16:34;;;;;;;32.50;19.52;;;12.10;23.00;;;;;;6215264;23;20005;-76
2022/03/22 18:19:00;;;;;;;;;;;12.00;22.80;;;;;;6216252;23;19985;-75
2022/03/22 18:21:27;;;;;;;37.17;20.05;;;12.00;22.60;;;;;;6215718;23;19888;-75
2022/03/22 18:23:54;;;;;;;30.50;18.00;;;12.20;22.30;;;;;;6215703;23;20069;-75
2022/03/22 18:26:21;;;;;;;23.17;14.32;;;12.20;22.10;;;;;;6215237;23;19989;-74
2022/03/22 18:28:47;;;;;;;24.55;14.27;;;12.30;22.00;;;;;;6215196;23;19990;-76
2022/03/22 18:31:13;;;;;;;21.02;13.85;;;12.20;22.30;;;;;;6215765;23;19996;-75
2022/03/22 19:47:03;;;;;;;43.38;20.60;;;9.50;24.30;;;;;;6187386;23;20025;-78
2022/03/22 19:49:28;;;;;;;;;;;9.50;24.40;;;;;;6188042;23;20036;-79
2022/03/22 19:51:54;;;;;;;38.15;20.23;;;9.40;24.50;;;;;;6214568;23;19932;-81
2022/03/22 19:54:20;;;;;;;;;;;9.20;25.00;;;;;;6188406;23;20040;-79
2022/03/22 19:56:48;;;;;;;35.80;19.67;;;9.20;25.30;;;;;;6188744;23;19900;-78
2022/03/22 19:59:14;;;;;;;35.97;15.98;;;9.00;25.40;;;;;;6210535;23;20043;-79
2022/03/22 20:01:41;;;;;;;32.65;15.65;;;8.90;25.80;;;;;;6210186;23;20016;-80
2022/03/22 20:04:07;;;;;;;31.35;14.55;;;8.80;26.00;;;;;;6183749;23;20028;-79
2022/03/22 20:06:34;;;;;;;36.60;17.20;;;8.70;26.20;;;;;;6177044;23;20020;-79
2022/03/22 20:09:00;;;;;;;48.35;22.73;;;8.70;26.40;;;;;;6186305;23;20024;-78
2022/03/22 20:11:26;;;;;;;49.83;22.20;;;8.70;26.70;;;;;;6214287;23;20013;-78
2022/03/22 20:13:51;;;;;;;44.20;18.48;;;8.50;26.90;;;;;;6214010;23;20012;-79
2022/03/22 20:16:17;;;;;;;;;;;8.60;27.20;;;;;;6214906;23;20005;-80
2022/03/22 20:18:43;;;;;;;33.08;15.35;;;8.60;27.50;;;;;;6214095;23;19919;-80
2022/03/22 20:21:09;;;;;;;37.05;15.90;;;8.60;27.60;;;;;;6186596;23;20005;-80
2022/03/22 20:23:36;;;;;;;;;;;8.50;28.20;;;;;;6186988;23;20057;-79
2022/03/22 20:26:02;;;;;;;35.73;16.87;;;8.50;27.90;;;;;;6213940;23;19904;-78
2022/03/22 20:28:28;;;;;;;34.80;17.27;;;8.40;27.80;;;;;;6188954;23;19993;-78
2022/03/22 20:30:55;;;;;;;35.28;17.95;;;8.40;28.00;;;;;;6213857;23;19991;-80
2022/03/22 21:36:14;;;;;;;21.60;10.40;;;14.80;18.70;;;;;;6153780;23;20033;-77
2022/03/22 21:38:40;;;;;;;16.45;9.88;;;14.80;18.80;;;;;;6149463;23;20029;-80
2022/03/22 21:41:08;;;;;;;19.50;9.77;;;14.70;18.90;;;;;;6150926;23;20026;-80
2022/03/22 21:43:35;;;;;;;21.88;10.40;;;14.50;18.80;;;;;;6129078;23;20062;-78
2022/03/22 21:46:02;;;;;;;24.45;10.23;;;14.50;19.00;;;;;;6130162;23;20010;-79
2022/03/22 21:48:29;;;;;;;19.63;9.93;;;14.40;19.10;;;;;;6155091;23;20014;-79
2022/03/22 21:50:55;;;;;;;16.75;10.02;;;14.40;19.10;;;;;;6129380;23;19994;-79
2022/03/22 21:53:21;;;;;;;;;;;14.40;19.00;;;;;;6155296;23;19986;-76
2022/03/22 21:55:47;;;;;;;18.08;8.73;;;14.50;18.90;;;;;;6155021;23;19930;-79
2022/03/22 21:58:14;;;;;;;;;;;14.50;18.90;;;;;;6155753;23;19998;-79
2022/03/22 22:00:44;;;;;;;37.15;16.42;;;14.40;18.90;;;;;;6154252;23;19901;-79
2022/03/22 22:03:10;;;;;;;52.10;23.45;;;14.40;18.80;;;;;;6154515;23;20010;-78
2022/03/22 22:05:36;;;;;;;41.15;19.52;;;14.30;19.00;;;;;;6149433;23;20478;-80
2022/03/22 22:08:04;;;;;;;17.75;10.40;;;14.20;19.10;;;;;;6126166;23;20053;-80
2022/03/22 22:10:30;;;;;;;27.40;15.88;;;14.00;19.90;;;;;;6123369;23;20006;-79
2022/03/22 22:13:00;;;;;;;23.02;13.00;;;13.80;19.40;;;;;;6153808;23;20018;-79
2022/03/22 22:15:30;;;;;;;17.23;8.43;;;13.60;19.30;;;;;;6151566;23;20045;-79
2022/03/22 22:18:00;;;;;;;14.43;6.57;;;13.60;19.20;;;;;;6155182;23;19998;-80
2022/03/22 22:20:26;;;;;;;15.77;7.13;;;13.70;18.60;;;;;;6127893;23;20009;-81
2022/03/22 22:22:53;;;;;;;14.65;7.00;;;14.00;18.20;;;;;;6154960;23;19998;-79
2022/03/22 22:25:21;;;;;;;20.45;7.40;;;14.30;18.00;;;;;;6154932;23;20006;-79
2022/03/22 22:27:47;;;;;;;12.45;6.97;;;14.40;17.80;;;;;;6155556;23;20006;-79
2022/03/22 22:30:14;;;;;;;;;;;14.70;17.70;;;;;;6156501;23;20006;-77
